Main page
METAR-TAF:

METAR-TAF

Airports :

King Khalid International Airport

Riyadh, Saudi Arabia

latitude: 24-56N, longitude: 046-43E, elevation: 614 m

Current weather observation

The report was made 55 minutes ago, at 00:00 UTC
Wind 3 kt from the West/Northwest
Temperature 28°C
Humidity 14%
Pressure 1006 hPa
Visibility 10 km or more
no clouds below 1500 m and no cumulonimbus

METAR: OERK 210000Z 29003KT CAVOK 28/M02 Q1006 NOSIG

Time: 03:55 (00:55 UTC)

Forecast

The report was made 1 hour and 55 minutes ago, at 23:00 UTC
Forecast valid from 21 at 00 UTC to 22 at 06 UTC
Wind 6 kt from the West/Northwest
Visibility 10 km or more
no clouds below 1500 m and no cumulonimbus
Becoming
from 21 at 06 UTC to 21 at 08 UTC
Wind 15 kt from the North

TAF: OERK 202300Z 2100/2206 29006KT CAVOK BECMG 2106/2108 35015KT

Weather observations and forecasts of more than 4000 airports (METAR and TAF reports).

The available stations are represented by yellow and red dots on the map.

Hover mouse over dot to see the name of the station.

Then click to see weather observations and forecasts.

To change the map : click on the green buttons with a black cross to zoom in, on the green button with a dash to zoom out, or on the green arrows for adjacent maps.


METAR-TAF: